Time;durP1;ratioP1;P1;durP2;ratioP2;P2;SDS_P1;SDS_P2;PMS_P1;PMS_P2;Temp;Humidity;BMP_temperature;BMP_pressure;BME280_temperature;BME280_humidity;BME280_pressure;Samples;Min_cycle;Max_cycle;Signal;HPM_P1;HPM_P2
2021/07/18 00:00:21;;;;;;;4.15;2.10;;;;;;;23.04;54.07;99553.34;4957613;28;20070;-80
2021/07/18 00:02:48;;;;;;;2.55;1.58;;;;;;;22.86;54.72;99550.91;4957200;28;20146;-80
2021/07/18 00:05:15;;;;;;;2.85;1.70;;;;;;;22.90;54.45;99546.91;4957541;29;20062;-80
2021/07/18 00:07:42;;;;;;;2.28;2.08;;;;;;;22.91;54.07;99540.63;4957264;29;20067;-80
2021/07/18 00:10:10;;;;;;;3.72;2.17;;;;;;;22.99;54.02;99542.41;4961376;28;20039;-80
2021/07/18 00:12:37;;;;;;;2.55;2.20;;;;;;;22.96;54.12;99548.91;4975658;28;20185;-80
2021/07/18 00:15:06;;;;;;;7.22;2.05;;;;;;;22.96;54.62;99553.41;4939826;29;20044;-80
2021/07/18 00:17:37;;;;;;;4.05;3.42;;;;;;;22.95;54.83;99547.22;4957427;28;20095;-79
2021/07/18 00:20:08;;;;;;;3.95;2.80;;;;;;;22.87;55.13;99547.25;4957041;29;20398;-80
2021/07/18 00:22:35;;;;;;;4.93;3.00;;;;;;;22.96;54.54;99537.47;4957305;29;20055;-80
2021/07/18 00:25:02;;;;;;;4.15;3.22;;;;;;;22.96;54.07;99526.81;4956289;28;20051;-78
2021/07/18 00:27:29;;;;;;;3.72;3.00;;;;;;;23.08;54.32;99519.28;4957057;28;20502;-79
2021/07/18 00:29:56;;;;;;;2.38;2.17;;;;;;;23.03;55.00;99518.97;4956511;29;20098;-80
2021/07/18 00:32:23;;;;;;;3.67;3.28;;;;;;;23.02;55.02;99527.97;4957193;29;20101;-82
2021/07/18 00:34:50;;;;;;;3.42;2.85;;;;;;;23.30;53.77;99528.28;4956306;28;20055;-81
2021/07/18 00:37:16;;;;;;;3.80;3.40;;;;;;;23.31;54.07;99530.75;4953723;28;20047;-81
2021/07/18 00:39:43;;;;;;;3.58;3.08;;;;;;;23.54;52.96;99517.47;4952916;28;20070;-81
2021/07/18 00:42:16;;;;;;;5.35;2.80;;;;;;;23.30;54.41;99515.81;4953318;28;20039;-81
2021/07/18 00:44:43;;;;;;;2.13;1.98;;;;;;;23.02;54.79;99506.69;4934137;28;20442;-81
2021/07/18 00:47:13;;;;;;;4.28;2.00;;;;;;;22.92;54.61;99509.56;4952278;28;20110;-81
2021/07/18 00:49:40;;;;;;;3.08;1.70;;;;;;;23.02;54.04;99498.72;4951560;28;20070;-81
2021/07/18 00:52:07;;;;;;;1.63;1.52;;;;;;;22.86;54.51;99496.94;4953568;28;20051;-81
2021/07/18 00:54:35;;;;;;;3.50;1.60;;;;;;;22.95;54.09;99491.41;4954428;28;20043;-82
2021/07/18 00:57:02;;;;;;;1.83;1.40;;;;;;;23.08;54.38;99482.88;4950629;28;20138;-82
2021/07/18 00:59:29;;;;;;;1.60;1.48;;;;;;;22.97;54.31;99483.28;4950624;28;20054;-82
2021/07/18 01:01:57;;;;;;;2.63;1.25;;;;;;;22.91;52.14;99476.03;4953827;28;20398;-82
2021/07/18 01:04:25;;;;;;;1.65;1.40;;;;;;;23.07;51.89;99472.44;4954373;28;20042;-82
2021/07/18 01:06:51;;;;;;;1.50;1.40;;;;;;;23.17;50.27;99467.69;4959887;28;20066;-82
2021/07/18 01:09:20;;;;;;;1.77;1.38;;;;;;;23.35;49.38;99468.25;4956067;28;20130;-82
2021/07/18 01:11:47;;;;;;;2.92;1.33;;;;;;;23.36;49.25;99461.91;4955709;28;20506;-81
2021/07/18 01:14:13;;;;;;;5.07;1.35;;;;;;;23.34;49.31;99468.44;4956111;28;20043;-82
2021/07/18 01:16:40;;;;;;;1.30;1.20;;;;;;;23.34;48.97;99476.41;4956343;28;20054;-81
2021/07/18 01:19:10;;;;;;;1.27;1.17;;;;;;;23.42;48.98;99477.16;4955605;28;20554;-81
2021/07/18 01:21:41;;;;;;;1.20;1.10;;;;;;;23.44;48.40;99466.38;4955815;28;20043;-82
2021/07/18 01:24:09;;;;;;;1.67;1.38;;;;;;;23.47;48.09;99469.47;4955746;28;20058;-81
2021/07/18 01:26:38;;;;;;;2.03;1.92;;;;;;;23.47;48.73;99469.47;4960413;28;20070;-81
2021/07/18 01:29:05;;;;;;;3.28;1.85;;;;;;;23.38;47.72;99475.03;4949443;28;20154;-81
2021/07/18 01:31:32;;;;;;;1.23;1.00;;;;;;;23.32;49.44;99478.41;4955900;28;20122;-81
2021/07/18 01:33:59;;;;;;;1.77;1.30;;;;;;;23.24;50.30;99482.78;4955335;28;20486;-81
2021/07/18 01:36:26;;;;;;;1.17;1.05;;;;;;;23.18;50.32;99472.03;4955867;29;20047;-81
2021/07/18 01:38:53;;;;;;;1.48;1.38;;;;;;;23.23;49.62;99469.69;4955695;28;20058;-82
2021/07/18 01:41:19;;;;;;;2.00;1.40;;;;;;;23.20;50.89;99476.16;4955528;29;20063;-81
2021/07/18 01:43:47;;;;;;;2.92;1.75;;;;;;;23.11;50.98;99473.72;4955623;28;20123;-81
2021/07/18 01:46:13;;;;;;;2.22;1.88;;;;;;;23.12;51.10;99475.41;4954925;28;20039;-82
2021/07/18 01:48:41;;;;;;;1.65;1.55;;;;;;;23.35;50.46;99465.59;4954981;28;20055;-82
2021/07/18 01:51:08;;;;;;;1.98;1.58;;;;;;;23.25;50.80;99462.34;4955159;29;20075;-82
2021/07/18 01:53:35;;;;;;;1.90;1.63;;;;;;;23.16;52.27;99468.72;4955527;29;20130;-82
2021/07/18 01:56:02;;;;;;;19.92;2.15;;;;;;;23.02;52.79;99464.16;4955372;28;20375;-81
2021/07/18 01:58:29;;;;;;;3.13;1.92;;;;;;;23.07;52.65;99465.28;4955436;29;20050;-81
2021/07/18 02:00:57;;;;;;;2.72;1.98;;;;;;;23.07;52.54;99469.78;4955169;28;20085;-81
2021/07/18 02:03:24;;;;;;;2.20;2.00;;;;;;;23.24;51.98;99468.66;4955195;28;20055;-81
2021/07/18 02:05:51;;;;;;;2.25;2.00;;;;;;;23.16;52.13;99471.38;4955094;29;20047;-81
2021/07/18 02:08:19;;;;;;;2.53;1.75;;;;;;;23.08;52.68;99477.56;4954760;29;20122;-82
2021/07/18 02:10:46;;;;;;;2.45;2.25;;;;;;;22.98;53.21;99475.13;4955411;28;20051;-82
2021/07/18 02:13:17;;;;;;;3.40;2.78;;;;;;;22.79;54.52;99478.19;4954920;29;20078;-81
2021/07/18 02:15:45;;;;;;;2.58;2.38;;;;;;;22.78;54.54;99473.06;4955186;28;20043;-82
2021/07/18 02:18:13;;;;;;;2.47;2.00;;;;;;;22.86;54.16;99476.50;4939107;28;20049;-82
2021/07/18 02:20:41;;;;;;;2.13;1.85;;;;;;;22.76;54.27;99478.56;4957117;28;20043;-81
2021/07/18 02:23:08;;;;;;;4.38;2.20;;;;;;;22.85;53.75;99472.19;4954725;28;20047;-81
2021/07/18 02:25:35;;;;;;;3.58;2.05;;;;;;;22.98;53.80;99467.16;4954973;29;20166;-81
2021/07/18 02:28:02;;;;;;;3.55;2.33;;;;;;;22.90;54.92;99459.22;4966157;28;20047;-84
2021/07/18 02:30:29;;;;;;;2.80;1.80;;;;;;;22.81;55.25;99460.25;4954842;29;20039;-81
2021/07/18 02:32:56;;;;;;;5.15;2.10;;;;;;;22.76;55.26;99454.63;4954936;28;20166;-81
2021/07/18 02:35:23;;;;;;;2.05;1.67;;;;;;;22.90;53.69;99464.53;4954621;29;20126;-81
2021/07/18 02:37:51;;;;;;;2.72;2.25;;;;;;;22.91;53.61;99466.22;4954767;29;20491;-80
2021/07/18 02:40:20;;;;;;;4.13;2.38;;;;;;;22.96;53.49;99473.66;4954518;28;20046;-81
2021/07/18 02:42:48;;;;;;;3.35;1.92;;;;;;;22.91;54.75;99474.19;4954628;28;20047;-81
2021/07/18 02:45:17;;;;;;;2.85;2.55;;;;;;;22.80;55.04;99474.56;4954250;29;20035;-81
2021/07/18 02:47:44;;;;;;;4.35;1.73;;;;;;;22.70;56.00;99476.59;4954470;28;20102;-81
2021/07/18 02:50:14;;;;;;;3.33;1.63;;;;;;;22.60;55.29;99475.97;4954127;28;20069;-81
2021/07/18 02:52:42;;;;;;;2.67;1.67;;;;;;;22.66;54.48;99483.25;4954890;28;20585;-81
2021/07/18 02:55:10;;;;;;;3.40;1.58;;;;;;;22.69;53.98;99488.19;4954087;28;20061;-81
2021/07/18 02:57:37;;;;;;;3.55;1.98;;;;;;;22.55;54.83;99479.13;4954170;28;20074;-81
2021/07/18 03:00:07;;;;;;;2.13;1.80;;;;;;;22.58;55.22;99481.44;4954383;29;20344;-81
2021/07/18 03:02:34;;;;;;;1.77;1.65;;;;;;;22.54;55.10;99481.97;4921366;29;20051;-81
2021/07/18 03:05:01;;;;;;;1.77;1.67;;;;;;;22.53;55.04;99483.81;4954216;29;20131;-81
2021/07/18 03:07:28;;;;;;;4.55;1.92;;;;;;;22.40;55.69;99479.03;4954116;28;20054;-82
2021/07/18 03:09:55;;;;;;;1.75;1.65;;;;;;;22.37;55.92;99478.53;4954500;28;20070;-82
2021/07/18 03:12:22;;;;;;;2.53;1.58;;;;;;;22.45;55.31;99475.84;4953831;29;20162;-83
2021/07/18 03:14:49;;;;;;;1.60;1.50;;;;;;;22.29;54.98;99474.09;4954209;29;20040;-83
2021/07/18 03:17:16;;;;;;;3.60;1.52;;;;;;;22.31;55.14;99485.34;4954372;28;20134;-82
2021/07/18 03:19:43;;;;;;;4.43;2.17;;;;;;;22.27;54.95;99481.41;4954360;29;20043;-82
2021/07/18 03:22:10;;;;;;;1.40;1.30;;;;;;;22.18;54.55;99483.25;4954091;28;20120;-83
2021/07/18 03:24:37;;;;;;;1.60;1.27;;;;;;;22.23;54.06;99482.72;4954339;28;20411;-83
2021/07/18 03:27:04;;;;;;;2.67;1.55;;;;;;;22.19;54.34;99486.72;4953992;29;20102;-83
2021/07/18 03:29:31;;;;;;;1.60;1.50;;;;;;;22.24;54.22;99489.69;4954090;28;20118;-83
2021/07/18 03:31:58;;;;;;;2.67;1.45;;;;;;;22.12;55.02;99488.41;4954080;29;20130;-82
2021/07/18 03:34:25;;;;;;;2.55;1.80;;;;;;;22.04;56.13;99481.25;4972776;28;20050;-82
2021/07/18 03:36:52;;;;;;;3.95;2.00;;;;;;;22.00;56.38;99489.69;4973374;28;20067;-82
2021/07/18 03:39:19;;;;;;;3.40;2.13;;;;;;;22.02;56.57;99490.38;4969705;28;20039;-82
2021/07/18 03:41:46;;;;;;;1.80;1.45;;;;;;;22.10;55.99;99493.00;4936836;29;20499;-81
2021/07/18 03:44:13;;;;;;;1.20;1.10;;;;;;;21.95;56.49;99493.72;4953928;29;20130;-81
2021/07/18 03:46:40;;;;;;;2.08;1.88;;;;;;;21.90;56.55;99498.69;4953916;29;20126;-81
2021/07/18 03:49:07;;;;;;;3.75;1.40;;;;;;;21.96;56.50;99497.19;4953665;29;20441;-81
2021/07/18 03:51:34;;;;;;;1.60;1.50;;;;;;;21.99;56.43;99502.16;4954033;28;20402;-81
2021/07/18 03:54:01;;;;;;;1.75;1.45;;;;;;;21.91;57.37;99496.88;4953949;29;20561;-81
2021/07/18 03:56:28;;;;;;;1.45;1.35;;;;;;;21.87;56.71;99493.72;4954277;28;20126;-81
2021/07/18 03:58:56;;;;;;;3.05;1.80;;;;;;;21.87;55.44;99499.00;4953917;29;20562;-82
2021/07/18 04:01:23;;;;;;;1.58;1.20;;;;;;;21.98;54.59;99505.81;4953861;28;20130;-83
2021/07/18 04:03:50;;;;;;;1.38;1.20;;;;;;;21.96;54.85;99507.81;4954098;29;20044;-82
2021/07/18 04:06:18;;;;;;;1.77;1.20;;;;;;;21.91;54.65;99503.00;4953374;28;20046;-82
2021/07/18 04:08:45;;;;;;;2.22;1.75;;;;;;;21.95;55.11;99506.97;4955587;28;20043;-82
2021/07/18 04:11:13;;;;;;;2.15;1.50;;;;;;;22.00;55.24;99511.78;4956736;28;20091;-80
2021/07/18 04:13:40;;;;;;;2.03;1.80;;;;;;;21.92;55.81;99517.91;4957452;28;20134;-82
2021/07/18 04:16:07;;;;;;;4.05;1.50;;;;;;;21.89;56.37;99517.41;4957172;29;20402;-82
2021/07/18 04:18:34;;;;;;;2.22;1.45;;;;;;;21.80;56.22;99508.66;4957186;28;20043;-82
2021/07/18 04:21:02;;;;;;;1.55;1.40;;;;;;;21.89;55.21;99507.66;4957107;29;20380;-82
2021/07/18 04:23:29;;;;;;;1.65;1.38;;;;;;;22.02;54.25;99509.78;4956510;29;20451;-82
2021/07/18 04:25:56;;;;;;;1.30;1.20;;;;;;;22.13;53.51;99508.63;4957109;29;20079;-82
2021/07/18 04:28:22;;;;;;;2.65;1.10;;;;;;;22.17;53.41;99505.47;4964180;28;20043;-82
2021/07/18 04:30:50;;;;;;;1.42;1.27;;;;;;;22.23;53.46;99506.63;4956784;29;20039;-82
2021/07/18 04:33:19;;;;;;;1.48;1.20;;;;;;;22.15;53.11;99509.28;4939834;29;20047;-82
2021/07/18 04:35:46;;;;;;;3.47;1.67;;;;;;;22.15;53.46;99511.94;4939997;29;20550;-82
2021/07/18 04:38:13;;;;;;;7.20;2.13;;;;;;;21.89;56.23;99517.41;4956119;28;20167;-83
2021/07/18 04:40:40;;;;;;;1.63;1.52;;;;;;;21.85;56.50;99513.47;4956854;29;20107;-83
2021/07/18 04:43:07;;;;;;;1.40;1.30;;;;;;;21.89;56.38;99505.00;4956679;28;20131;-83
2021/07/18 04:45:34;;;;;;;2.13;1.35;;;;;;;21.98;56.19;99505.81;4956860;28;20122;-82
2021/07/18 04:48:01;;;;;;;2.08;1.33;;;;;;;22.06;56.26;99510.28;4950232;28;20056;-83
2021/07/18 04:50:28;;;;;;;1.42;1.20;;;;;;;22.12;56.03;99507.81;4939380;29;20550;-84
2021/07/18 04:52:55;;;;;;;4.57;1.60;;;;;;;22.27;54.62;99510.59;4956636;28;20046;-81
2021/07/18 04:55:23;;;;;;;3.03;1.58;;;;;;;22.41;53.33;99512.53;4956098;28;20051;-82
2021/07/18 04:57:50;;;;;;;1.40;1.30;;;;;;;22.40;54.76;99518.03;4956560;28;20043;-81
2021/07/18 05:00:22;;;;;;;2.28;1.23;;;;;;;22.46;52.95;99517.34;4939059;28;20513;-80
2021/07/18 05:02:50;;;;;;;2.05;1.30;;;;;;;22.56;51.96;99517.97;4937409;29;20047;-81
2021/07/18 05:05:19;;;;;;;2.08;1.70;;;;;;;22.61;51.91;99520.94;4938882;28;20099;-80
2021/07/18 05:07:55;;;;;;;1.25;1.15;;;;;;;22.62;51.76;99525.25;4956551;29;20206;-80
2021/07/18 05:10:24;;;;;;;3.00;1.30;;;;;;;22.68;51.38;99529.06;4960302;28;20473;-80
2021/07/18 05:12:55;;;;;;;3.15;1.50;;;;;;;22.70;50.75;99524.41;4938901;29;20055;-79
2021/07/18 05:15:24;;;;;;;1.73;1.50;;;;;;;22.66;50.78;99525.75;4956338;28;20057;-81
2021/07/18 05:17:52;;;;;;;1.95;1.60;;;;;;;22.90;50.39;99533.63;4955861;29;20067;-81
2021/07/18 05:20:22;;;;;;;2.80;1.85;;;;;;;22.90;50.44;99536.28;4956010;29;20039;-82
2021/07/18 05:22:50;;;;;;;1.60;1.50;;;;;;;23.02;50.68;99533.28;4956317;28;20043;-82
2021/07/18 05:25:18;;;;;;;1.83;1.63;;;;;;;23.10;50.57;99531.38;4956232;28;20043;-82
2021/07/18 05:27:45;;;;;;;2.83;1.30;;;;;;;23.22;50.15;99542.44;4955930;29;20118;-84
2021/07/18 05:30:13;;;;;;;1.98;1.30;;;;;;;23.35;49.72;99549.88;4933715;29;20043;-81
2021/07/18 05:32:41;;;;;;;2.28;1.13;;;;;;;23.25;50.97;99542.09;4957700;28;20094;-81
2021/07/18 05:35:10;;;;;;;1.40;1.23;;;;;;;23.28;50.78;99544.44;4953928;28;20051;-80
2021/07/18 05:37:37;;;;;;;2.15;1.30;;;;;;;23.22;50.50;99537.13;4952909;28;20486;-81
2021/07/18 05:40:06;;;;;;;1.42;1.30;;;;;;;23.32;50.34;99528.94;4952649;28;20098;-82
2021/07/18 05:42:33;;;;;;;1.08;1.00;;;;;;;23.38;50.23;99536.19;4951151;28;20035;-81
2021/07/18 05:45:00;;;;;;;1.75;1.65;;;;;;;23.50;49.88;99537.47;4952912;28;20083;-80
2021/07/18 05:47:28;;;;;;;2.65;1.33;;;;;;;23.65;49.57;99542.84;4951090;28;20043;-81
2021/07/18 05:49:57;;;;;;;1.50;1.38;;;;;;;23.74;49.40;99539.13;4952682;28;20420;-82
2021/07/18 05:52:24;;;;;;;1.48;1.38;;;;;;;23.79;49.29;99539.41;4952580;28;20449;-82
2021/07/18 05:54:52;;;;;;;1.95;1.42;;;;;;;23.82;49.45;99543.56;4951259;28;20379;-83
2021/07/18 05:57:19;;;;;;;1.85;1.67;;;;;;;23.83;49.18;99542.56;4943982;28;20040;-84
2021/07/18 05:59:46;;;;;;;2.95;1.23;;;;;;;23.90;49.54;99532.84;4954669;28;20043;-84
2021/07/18 06:02:15;;;;;;;1.52;1.42;;;;;;;23.92;48.87;99528.19;4955216;28;20055;-85
2021/07/18 06:04:42;;;;;;;2.33;1.30;;;;;;;24.05;48.73;99526.53;4956530;28;20074;-83
2021/07/18 06:07:10;;;;;;;3.30;1.35;;;;;;;24.24;49.30;99529.72;4949237;28;20402;-80
2021/07/18 06:09:37;;;;;;;2.22;1.25;;;;;;;24.26;50.02;99527.69;4951665;28;20039;-85
2021/07/18 06:12:04;;;;;;;2.05;1.30;;;;;;;24.14;50.17;99526.47;4961970;28;20105;-90
2021/07/18 06:14:32;;;;;;;2.05;1.60;;;;;;;24.21;50.20;99532.72;4967187;28;20537;-88
2021/07/18 06:16:58;;;;;;;1.65;1.30;;;;;;;24.11;49.79;99524.16;4955257;28;20106;-83
2021/07/18 06:19:25;;;;;;;1.20;1.10;;;;;;;24.25;49.89;99526.03;4955508;28;20110;-83
2021/07/18 06:21:53;;;;;;;2.03;1.75;;;;;;;24.34;49.42;99527.59;4954647;28;20070;-85
2021/07/18 06:24:20;;;;;;;1.55;1.33;;;;;;;24.44;48.58;99520.19;4954968;28;20423;-84
2021/07/18 06:26:50;;;;;;;1.30;1.20;;;;;;;24.59;49.10;99530.00;4955213;28;20054;-78
2021/07/18 06:29:18;;;;;;;1.60;1.20;;;;;;;24.64;48.71;99522.28;4937863;28;20079;-87
2021/07/18 06:31:45;;;;;;;2.05;1.30;;;;;;;24.76;48.15;99518.97;4952883;28;20057;-84
2021/07/18 06:34:12;;;;;;;1.58;1.48;;;;;;;24.89;48.99;99518.31;4947967;28;20118;-84
2021/07/18 06:36:38;;;;;;;2.50;1.60;;;;;;;24.97;49.49;99515.53;4953876;28;20465;-87
2021/07/18 06:39:06;;;;;;;1.55;1.40;;;;;;;25.05;49.99;99517.28;4952010;28;20050;-85
2021/07/18 06:41:32;;;;;;;1.98;1.65;;;;;;;25.11;50.22;99524.56;4951304;28;20036;-83
2021/07/18 06:44:01;;;;;;;1.55;1.45;;;;;;;25.15;47.63;99530.34;4952580;28;20498;-88
2021/07/18 06:46:30;;;;;;;5.63;1.75;;;;;;;25.12;46.87;99536.03;4955246;28;20474;-82
2021/07/18 06:48:57;;;;;;;2.05;1.20;;;;;;;25.23;46.71;99530.22;4933466;28;20450;-82
2021/07/18 06:51:25;;;;;;;1.75;1.60;;;;;;;25.21;46.97;99532.25;4948657;28;20189;-81
2021/07/18 06:53:52;;;;;;;3.08;1.50;;;;;;;25.43;47.23;99533.09;4944602;28;20043;-79
2021/07/18 06:56:29;;;;;;;1.30;1.17;;;;;;;25.09;47.73;99531.94;4951445;28;20043;-79
2021/07/18 06:58:57;;;;;;;2.75;2.03;;;;;;;25.14;47.84;99534.00;4949481;28;20043;-79
2021/07/18 07:01:25;;;;;;;2.25;1.45;;;;;;;25.25;48.57;99533.53;4957002;28;20154;-80
2021/07/18 07:03:52;;;;;;;1.75;1.52;;;;;;;25.31;48.37;99538.13;4948615;28;20044;-81
2021/07/18 07:06:19;;;;;;;2.72;2.28;;;;;;;25.37;48.70;99542.69;4951137;28;20043;-82
2021/07/18 07:08:46;;;;;;;1.60;1.50;;;;;;;25.39;47.51;99543.31;4958202;28;20131;-79
2021/07/18 07:11:14;;;;;;;3.33;1.30;;;;;;;25.31;48.04;99552.28;4958283;28;20537;-81
2021/07/18 07:13:41;;;;;;;2.10;1.60;;;;;;;25.37;47.78;99545.34;4955882;28;20066;-79
2021/07/18 07:16:08;;;;;;;2.05;1.40;;;;;;;25.45;47.07;99552.41;4952539;28;20126;-80
2021/07/18 07:18:35;;;;;;;5.30;1.45;;;;;;;25.44;46.32;99545.41;4948799;28;20077;-77
2021/07/18 07:21:02;;;;;;;1.88;1.45;;;;;;;25.50;46.61;99550.81;4949644;28;20055;-78
2021/07/18 07:23:29;;;;;;;3.95;1.75;;;;;;;25.55;45.61;99543.06;4949657;28;20047;-76
2021/07/18 07:25:56;;;;;;;4.70;1.38;;;;;;;25.60;46.22;99546.00;4934966;28;20054;-81
2021/07/18 07:28:23;;;;;;;1.10;1.10;;;;;;;25.69;45.17;99562.72;4949217;28;20051;-78
2021/07/18 07:30:52;;;;;;;1.83;1.52;;;;;;;25.68;45.59;99568.25;4950463;28;20461;-77
2021/07/18 07:33:19;;;;;;;1.77;1.67;;;;;;;25.53;46.45;99574.47;4951453;28;20043;-78
2021/07/18 07:35:46;;;;;;;1.63;1.52;;;;;;;25.69;45.46;99575.25;4955908;28;20512;-79
2021/07/18 07:38:13;;;;;;;3.20;1.90;;;;;;;25.76;45.63;99573.47;4948732;28;20486;-78
2021/07/18 07:40:40;;;;;;;1.48;1.38;;;;;;;25.61;45.56;99579.66;4952108;28;20050;-79
2021/07/18 07:43:07;;;;;;;1.45;1.25;;;;;;;25.67;45.79;99577.25;4949901;28;20043;-78
2021/07/18 07:45:34;;;;;;;2.47;1.38;;;;;;;25.65;45.69;99574.78;4951621;28;20073;-80
2021/07/18 07:48:03;;;;;;;1.50;1.40;;;;;;;25.69;45.80;99570.72;4954317;28;20050;-78
2021/07/18 07:50:31;;;;;;;1.70;1.60;;;;;;;25.71;46.32;99559.84;4955401;28;20055;-80
2021/07/18 07:52:58;;;;;;;3.78;2.15;;;;;;;25.65;46.45;99553.44;4955938;28;20043;-79
2021/07/18 07:55:26;;;;;;;1.75;1.65;;;;;;;25.72;46.10;99553.47;4955246;28;20043;-78
2021/07/18 07:57:53;;;;;;;2.47;1.48;;;;;;;25.80;47.02;99551.56;4955094;28;20131;-79
2021/07/18 08:00:20;;;;;;;3.33;2.10;;;;;;;25.85;46.82;99556.31;4951643;28;20051;-79
2021/07/18 08:02:49;;;;;;;3.10;1.45;;;;;;;25.81;47.54;99558.53;4949990;28;20039;-78
2021/07/18 08:05:20;;;;;;;2.08;1.88;;;;;;;25.96;46.50;99561.13;4952212;28;20044;-79
2021/07/18 08:07:47;;;;;;;3.05;2.00;;;;;;;25.92;48.19;99564.38;4953196;28;20070;-79
2021/07/18 08:10:17;;;;;;;3.47;2.80;;;;;;;25.91;48.27;99560.88;4951504;28;20070;-79
2021/07/18 08:12:46;;;;;;;2.63;1.85;;;;;;;25.96;48.25;99563.81;4953226;28;20044;-80
2021/07/18 08:15:15;;;;;;;8.32;2.40;;;;;;;25.90;47.72;99561.91;4955098;28;20058;-79
2021/07/18 08:17:43;;;;;;;1.95;1.80;;;;;;;25.95;47.15;99562.16;4954539;28;20049;-78
2021/07/18 08:20:13;;;;;;;2.58;2.38;;;;;;;26.03;48.30;99562.00;4956309;28;20054;-77
2021/07/18 08:22:40;;;;;;;2.72;2.53;;;;;;;26.25;48.33;99560.13;4957081;28;20117;-76
2021/07/18 08:25:08;;;;;;;5.28;2.40;;;;;;;26.23;47.10;99559.50;4954293;28;20047;-76
2021/07/18 08:27:36;;;;;;;3.13;2.80;;;;;;;26.20;49.19;99556.38;4953556;28;20039;-76
2021/07/18 08:30:05;;;;;;;5.32;3.35;;;;;;;26.36;47.62;99564.09;4938955;29;20051;-77
2021/07/18 08:32:33;;;;;;;3.47;2.85;;;;;;;26.41;47.74;99569.69;4951941;28;20075;-81
2021/07/18 08:35:00;;;;;;;2.85;2.30;;;;;;;26.34;46.84;99574.97;4958296;28;20078;-80
2021/07/18 08:37:27;;;;;;;3.60;2.72;;;;;;;26.24;47.41;99573.69;4938138;29;20035;-75
2021/07/18 08:39:55;;;;;;;3.42;2.10;;;;;;;26.37;47.00;99568.44;4952005;28;20048;-77
2021/07/18 08:42:23;;;;;;;2.83;2.60;;;;;;;26.07;47.98;99568.63;4958920;28;20035;-79
2021/07/18 08:44:50;;;;;;;3.15;2.95;;;;;;;25.92;47.57;99567.88;4955870;28;20102;-78
2021/07/18 08:47:20;;;;;;;4.07;2.28;;;;;;;26.03;46.93;99571.88;4953879;28;20075;-81
2021/07/18 08:49:47;;;;;;;3.38;3.10;;;;;;;26.03;47.09;99567.34;4956485;28;20039;-77
2021/07/18 08:52:14;;;;;;;6.35;3.85;;;;;;;26.20;47.14;99565.22;4953129;28;20047;-78
2021/07/18 08:54:45;;;;;;;2.55;2.35;;;;;;;26.32;47.72;99565.53;4954504;28;20040;-79
2021/07/18 08:57:13;;;;;;;2.78;2.35;;;;;;;26.34;46.61;99576.84;4953490;28;20047;-78
2021/07/18 08:59:39;;;;;;;2.60;2.10;;;;;;;26.20;45.25;99569.72;4953235;28;20146;-78
2021/07/18 09:02:07;;;;;;;4.70;2.70;;;;;;;26.26;45.41;99576.97;4954733;28;20043;-78
2021/07/18 09:04:35;;;;;;;3.15;2.70;;;;;;;26.31;45.15;99579.88;4951691;28;20051;-77
2021/07/18 09:07:07;;;;;;;9.88;2.65;;;;;;;26.36;44.69;99578.28;4954102;28;20055;-78
2021/07/18 09:09:35;;;;;;;3.35;2.40;;;;;;;26.21;44.83;99566.06;4946802;28;20054;-80
2021/07/18 09:12:05;;;;;;;2.45;2.25;;;;;;;26.27;44.77;99568.78;4955571;28;20498;-78
2021/07/18 09:14:39;;;;;;;2.38;2.13;;;;;;;26.27;45.02;99567.97;4930213;28;20114;-78
2021/07/18 09:17:10;;;;;;;4.00;2.10;;;;;;;26.19;45.61;99578.78;4952580;28;20053;-76
2021/07/18 09:19:39;;;;;;;3.60;3.15;;;;;;;26.30;45.29;99579.06;4954036;28;20393;-79
2021/07/18 09:22:18;;;;;;;3.95;2.83;;;;;;;26.41;46.00;99580.38;4953321;28;20552;-78
2021/07/18 09:24:59;;;;;;;4.13;2.60;;;;;;;26.31;45.17;99577.22;4949162;28;20138;-79
2021/07/18 09:27:28;;;;;;;3.17;2.88;;;;;;;26.56;45.37;99577.63;4948259;28;20047;-82
2021/07/18 09:30:16;;;;;;;3.05;2.75;;;;;;;26.68;45.00;99573.38;4958330;28;20115;-83
2021/07/18 09:32:47;;;;;;;6.07;3.10;;;;;;;26.66;46.27;99570.06;4952488;28;20119;-79
2021/07/18 09:35:17;;;;;;;2.70;2.47;;;;;;;26.61;43.65;99569.84;4950691;28;20095;-79
2021/07/18 09:37:46;;;;;;;10.82;3.72;;;;;;;26.64;44.82;99572.97;4952056;28;20101;-80
2021/07/18 09:40:22;;;;;;;3.03;2.45;;;;;;;26.59;43.53;99571.91;4956477;28;20561;-82
2021/07/18 09:42:56;;;;;;;6.07;3.10;;;;;;;26.68;43.98;99569.88;4954462;28;20048;-79
2021/07/18 09:45:30;;;;;;;3.60;3.28;;;;;;;26.68;44.96;99561.84;4947090;28;20047;-79
2021/07/18 09:48:02;;;;;;;5.55;3.22;;;;;;;26.46;45.37;99561.94;4950397;28;20411;-79
2021/07/18 09:50:44;;;;;;;3.88;2.38;;;;;;;26.45;45.57;99549.59;4949551;28;20134;-77
2021/07/18 09:53:25;;;;;;;4.38;3.10;;;;;;;26.63;45.53;99552.59;4952484;28;20511;-78
2021/07/18 09:56:03;;;;;;;7.40;4.13;;;;;;;26.64;44.84;99556.09;4950568;28;20392;-79
2021/07/18 09:58:31;;;;;;;5.53;3.60;;;;;;;26.74;45.18;99548.53;4950649;28;20508;-79
2021/07/18 10:01:00;;;;;;;14.48;4.55;;;;;;;26.73;45.28;99551.38;4950765;28;20463;-78
2021/07/18 10:03:28;;;;;;;4.45;3.33;;;;;;;26.71;45.02;99551.59;4948403;28;20043;-77
2021/07/18 10:06:11;;;;;;;4.32;3.30;;;;;;;26.72;45.07;99550.56;4950957;28;20138;-81
2021/07/18 10:08:40;;;;;;;19.13;4.97;;;;;;;26.57;44.89;99548.00;4928856;28;20114;-80
2021/07/18 10:11:11;;;;;;;11.90;3.45;;;;;;;26.90;45.53;99542.03;4951854;28;20131;-78
2021/07/18 10:13:40;;;;;;;3.80;2.92;;;;;;;26.87;44.09;99547.75;4952953;28;20122;-78
2021/07/18 10:16:08;;;;;;;5.93;3.03;;;;;;;27.20;43.52;99547.91;4950351;28;20051;-78
2021/07/18 10:18:37;;;;;;;8.52;3.30;;;;;;;27.12;43.37;99543.59;4949603;28;20048;-81
2021/07/18 10:21:05;;;;;;;5.07;3.35;;;;;;;27.27;43.09;99542.56;4950220;28;20057;-78
2021/07/18 10:23:38;;;;;;;7.15;3.08;;;;;;;27.05;43.57;99533.84;4934897;28;20050;-82
2021/07/18 10:26:19;;;;;;;4.28;2.55;;;;;;;26.92;43.97;99528.47;4950690;28;20403;-78
2021/07/18 10:28:48;;;;;;;7.82;2.55;;;;;;;27.49;41.76;99535.25;4953005;28;20035;-81
2021/07/18 10:31:21;;;;;;;4.05;2.70;;;;;;;27.27;41.62;99529.19;4948471;28;20039;-79
2021/07/18 10:33:49;;;;;;;2.50;2.30;;;;;;;27.44;40.81;99533.16;4950553;28;20086;-81
2021/07/18 10:36:20;;;;;;;10.18;8.18;;;;;;;27.32;42.27;99527.56;4952969;28;20122;-83
2021/07/18 10:38:47;;;;;;;2.90;2.70;;;;;;;27.12;42.77;99524.03;4952071;28;20071;-79
2021/07/18 10:41:15;;;;;;;7.63;3.47;;;;;;;26.97;43.17;99526.00;4952130;28;20527;-78
2021/07/18 10:43:49;;;;;;;6.93;3.78;;;;;;;27.11;41.75;99517.88;4949232;28;20043;-81
2021/07/18 10:46:42;;;;;;;2.40;2.20;;;;;;;27.56;41.46;99517.31;4950134;28;20043;-80
2021/07/18 10:49:14;;;;;;;1.95;1.73;;;;;;;27.92;37.08;99522.31;4950486;28;20098;-78
2021/07/18 10:51:51;;;;;;;3.97;2.08;;;;;;;27.66;37.94;99515.06;4955790;28;20047;-79
2021/07/18 10:54:19;;;;;;;4.60;2.83;;;;;;;27.39;40.64;99512.38;4953120;28;20118;-81
2021/07/18 10:56:51;;;;;;;4.82;2.95;;;;;;;27.22;41.54;99511.09;4951294;28;20079;-81
2021/07/18 10:59:36;;;;;;;4.82;2.00;;;;;;;27.21;41.71;99508.59;4950507;28;20043;-80
2021/07/18 11:02:11;;;;;;;5.82;2.55;;;;;;;27.16;41.17;99503.84;4952168;28;20193;-79
2021/07/18 11:04:41;;;;;;;6.78;2.38;;;;;;;27.09;41.60;99500.34;4953040;28;20573;-80
2021/07/18 11:07:22;;;;;;;7.72;3.40;;;;;;;27.18;41.45;99506.34;4954553;28;20106;-81
2021/07/18 11:09:56;;;;;;;2.70;2.50;;;;;;;27.17;41.57;99504.72;4950456;28;20094;-82
2021/07/18 11:12:30;;;;;;;3.65;2.55;;;;;;;27.96;38.74;99498.59;4947421;28;20482;-82
2021/07/18 11:15:21;;;;;;;5.25;3.10;;;;;;;27.84;38.33;99509.94;4953571;28;20188;-81
2021/07/18 11:18:05;;;;;;;4.13;2.25;;;;;;;27.92;38.30;99506.25;4921371;29;20043;-81
2021/07/18 11:20:35;;;;;;;4.00;2.45;;;;;;;28.03;37.15;99500.25;4953776;28;20047;-84
2021/07/18 11:23:04;;;;;;;3.45;2.72;;;;;;;28.22;36.58;99497.75;4957153;28;20489;-78
2021/07/18 11:25:47;;;;;;;3.55;2.55;;;;;;;28.31;37.17;99493.81;4953925;28;20047;-79
2021/07/18 11:31:14;;;;;;;7.00;3.08;;;;;;;28.22;36.83;99487.03;4956655;28;20498;-80
2021/07/18 11:33:44;;;;;;;2.63;2.42;;;;;;;28.09;38.09;99494.06;4950149;28;20570;-79
2021/07/18 11:36:20;;;;;;;3.03;2.22;;;;;;;27.85;37.97;99484.81;4956724;28;20039;-80
2021/07/18 11:38:49;;;;;;;5.22;2.50;;;;;;;27.69;38.74;99479.84;4954561;28;20031;-80
2021/07/18 11:41:20;;;;;;;2.78;2.30;;;;;;;27.79;38.15;99492.84;4956444;28;20046;-79
2021/07/18 11:43:49;;;;;;;5.72;2.72;;;;;;;27.86;39.36;99478.44;4955992;28;20058;-79